createdAt,value
2018-02-05T00:01:15.966Z,61.30
2018-02-05T00:03:44.589Z,61.50
2018-02-05T00:06:12.869Z,61.50
2018-02-05T00:08:41.140Z,61.40
2018-02-05T00:11:09.424Z,62.00
2018-02-05T00:13:37.664Z,61.70
2018-02-05T00:16:05.955Z,61.90
2018-02-05T00:18:34.225Z,61.70
2018-02-05T00:21:02.774Z,61.00
2018-02-05T00:23:31.070Z,61.00
2018-02-05T00:25:59.295Z,60.90
2018-02-05T00:28:28.313Z,61.40
2018-02-05T00:30:56.561Z,61.40
2018-02-05T00:33:24.864Z,60.90
2018-02-05T00:35:53.904Z,60.60
2018-02-05T00:38:22.196Z,60.60
2018-02-05T00:40:50.469Z,61.10
2018-02-05T00:43:19.069Z,60.90
2018-02-05T00:45:47.294Z,60.90
2018-02-05T00:48:15.532Z,60.60
2018-02-05T00:50:44.584Z,60.50
2018-02-05T00:53:12.897Z,60.50
2018-02-05T00:55:41.170Z,60.60
2018-02-05T00:58:09.431Z,60.20
2018-02-05T01:00:38.093Z,60.40
2018-02-05T01:03:06.326Z,60.40
2018-02-05T01:05:35.362Z,60.40
2018-02-05T01:08:03.654Z,60.40
2018-02-05T01:10:31.879Z,60.60
2018-02-05T01:13:00.901Z,60.40
2018-02-05T01:15:29.177Z,60.40
2018-02-05T01:17:57.420Z,61.10
2018-02-05T01:20:26.473Z,60.30
2018-02-05T01:22:55.021Z,60.30
2018-02-05T01:25:23.247Z,60.50
2018-02-05T01:27:51.532Z,60.50
2018-02-05T01:30:19.817Z,60.30
2018-02-05T01:32:48.084Z,60.30
2018-02-05T01:35:16.325Z,60.30
2018-02-05T01:37:44.549Z,60.50
2018-02-05T01:40:12.854Z,60.50
2018-02-05T01:42:42.705Z,60.50
2018-02-05T01:45:11.305Z,60.50
2018-02-05T01:47:39.528Z,60.10
2018-02-05T01:50:07.777Z,60.40
2018-02-05T01:52:36.017Z,60.50
2018-02-05T01:55:04.296Z,60.60
2018-02-05T01:57:32.903Z,60.50
2018-02-05T02:00:01.137Z,61.10
2018-02-05T02:02:29.494Z,60.90
2018-02-05T02:04:58.552Z,60.70
2018-02-05T02:07:26.788Z,60.70
2018-02-05T02:09:55.080Z,60.70
2018-02-05T02:12:23.350Z,61.00
2018-02-05T02:14:51.928Z,60.60
2018-02-05T02:17:20.163Z,60.60
2018-02-05T02:19:49.167Z,60.90
2018-02-05T02:22:18.235Z,60.60
2018-02-05T02:24:46.483Z,60.50
2018-02-05T02:27:15.082Z,60.60
2018-02-05T02:29:44.333Z,60.20
2018-02-05T02:32:13.320Z,60.30
2018-02-05T02:34:42.379Z,60.10
2018-02-05T02:37:10.663Z,60.10
2018-02-05T02:39:38.943Z,60.10
2018-02-05T02:42:07.173Z,60.30
2018-02-05T02:44:35.763Z,60.70
2018-02-05T02:47:04.043Z,61.10
2018-02-05T02:49:32.327Z,60.90
2018-02-05T02:52:00.606Z,60.80
2018-02-05T02:54:29.036Z,60.60
2018-02-05T02:56:58.047Z,61.10
2018-02-05T02:59:26.285Z,61.10
2018-02-05T03:01:54.855Z,60.80
2018-02-05T03:04:23.121Z,60.70
2018-02-05T03:06:51.357Z,60.50
2018-02-05T03:09:20.382Z,61.00
2018-02-05T03:11:48.650Z,60.90
2018-02-05T03:14:16.933Z,61.00
2018-02-05T03:16:45.194Z,60.80
2018-02-05T03:19:13.834Z,61.30
2018-02-05T03:21:42.099Z,61.00
2018-02-05T03:24:10.368Z,61.00
2018-02-05T03:26:39.378Z,61.40
2018-02-05T03:29:07.613Z,61.50
2018-02-05T03:31:35.852Z,61.30
2018-02-05T03:34:04.908Z,61.40
2018-02-05T03:36:33.199Z,61.40
2018-02-05T03:39:01.462Z,61.30
2018-02-05T03:41:30.063Z,61.20
2018-02-05T03:43:58.334Z,61.40
2018-02-05T03:46:26.603Z,61.80
2018-02-05T03:48:54.847Z,61.00
2018-02-05T03:51:23.085Z,62.00
2018-02-05T03:53:51.388Z,61.00
2018-02-05T03:56:20.420Z,60.90
2018-02-05T03:58:48.801Z,60.90
2018-02-05T04:01:17.036Z,61.80
2018-02-05T04:03:46.373Z,61.40
2018-02-05T04:06:14.657Z,61.40
2018-02-05T04:08:42.891Z,60.30
2018-02-05T04:11:11.190Z,61.30
2018-02-05T04:13:39.464Z,60.90
2018-02-05T04:16:07.722Z,61.10
2018-02-05T04:18:36.759Z,61.00
2018-02-05T04:21:05.045Z,60.90
2018-02-05T04:23:33.280Z,60.90
2018-02-05T04:26:01.884Z,61.70
2018-02-05T04:28:30.159Z,61.20
2018-02-05T04:30:58.418Z,60.90
2018-02-05T04:33:26.675Z,60.70
2018-02-05T04:35:55.760Z,60.60
2018-02-05T04:38:24.007Z,60.50
2018-02-05T04:40:52.284Z,60.70
2018-02-05T04:43:20.867Z,61.30
2018-02-05T04:45:49.143Z,60.40
2018-02-05T04:48:17.379Z,61.10
2018-02-05T04:50:46.428Z,60.20
2018-02-05T04:53:14.699Z,60.10
2018-02-05T04:55:42.996Z,61.10
2018-02-05T04:58:11.279Z,61.60
2018-02-05T05:00:39.567Z,61.20
2018-02-05T05:03:08.574Z,60.40
2018-02-05T05:05:37.226Z,60.40
2018-02-05T05:08:05.502Z,61.40
2018-02-05T05:10:33.780Z,60.60
2018-02-05T05:13:02.029Z,61.00
2018-02-05T05:15:30.307Z,61.20
2018-02-05T05:17:58.585Z,60.70
2018-02-05T05:20:26.827Z,60.50
2018-02-05T05:22:56.196Z,60.90
2018-02-05T05:25:24.468Z,60.70
2018-02-05T05:27:52.702Z,60.80
2018-02-05T05:30:20.996Z,60.80
2018-02-05T05:32:49.270Z,60.90
2018-02-05T05:35:17.554Z,61.10
2018-02-05T05:37:45.788Z,60.70
2018-02-05T05:40:14.044Z,60.70
2018-02-05T05:42:43.087Z,60.60
2018-02-05T05:45:11.712Z,60.60
2018-02-05T05:47:39.945Z,60.70
2018-02-05T05:50:08.226Z,60.80
2018-02-05T05:52:36.482Z,60.50
2018-02-05T05:55:04.747Z,60.70
2018-02-05T05:57:33.826Z,60.70
2018-02-05T06:00:02.076Z,60.70
2018-02-05T06:02:30.335Z,60.60
2018-02-05T06:04:58.570Z,60.70
2018-02-05T06:07:27.632Z,61.00
2018-02-05T06:09:55.858Z,60.90
2018-02-05T06:12:24.468Z,60.60
2018-02-05T06:14:52.697Z,60.60
2018-02-05T06:17:21.743Z,60.70
2018-02-05T06:19:50.039Z,60.70
2018-02-05T06:22:18.276Z,60.50
2018-02-05T06:24:46.820Z,60.70
2018-02-05T06:27:15.863Z,60.40
2018-02-05T06:29:44.095Z,60.30
2018-02-05T06:32:13.158Z,60.20
2018-02-05T06:34:41.380Z,60.20
2018-02-05T06:37:09.632Z,60.10
2018-02-05T06:39:37.880Z,59.90
2018-02-05T06:42:06.170Z,59.90
2018-02-05T06:44:34.443Z,60.00
2018-02-05T06:47:02.731Z,60.10
2018-02-05T06:49:30.963Z,60.10
2018-02-05T06:52:11.196Z,60.20
2018-02-05T06:57:41.600Z,60.10
2018-02-05T07:00:09.839Z,60.20
2018-02-05T07:02:38.416Z,60.10
2018-02-05T07:05:06.693Z,60.20
2018-02-05T07:07:34.923Z,60.30
2018-02-05T07:10:03.213Z,60.10
2018-02-05T07:12:31.446Z,60.00
2018-02-05T07:14:59.693Z,60.00
2018-02-05T07:17:27.937Z,60.00
2018-02-05T07:19:56.192Z,60.30
2018-02-05T07:22:24.471Z,61.10
2018-02-05T07:24:53.183Z,60.70
2018-02-05T07:27:21.403Z,60.80
2018-02-05T07:29:49.652Z,60.90
2018-02-05T07:32:18.720Z,60.30
2018-02-05T07:34:46.948Z,60.20
2018-02-05T07:37:15.546Z,59.90
2018-02-05T07:39:43.775Z,59.70
2018-02-05T07:42:12.898Z,59.60
2018-02-05T07:44:41.191Z,59.60
2018-02-05T07:47:09.456Z,60.30
2018-02-05T07:49:37.741Z,59.50
2018-02-05T07:52:06.025Z,59.40
2018-02-05T07:54:34.304Z,59.50
2018-02-05T07:57:02.533Z,59.50
2018-02-05T07:59:31.892Z,59.40
2018-02-05T08:02:00.194Z,59.30
2018-02-05T08:04:28.437Z,59.30
2018-02-05T08:06:56.739Z,59.40
2018-02-05T08:09:24.983Z,59.30
2018-02-05T08:11:53.584Z,59.60
2018-02-05T08:14:21.828Z,60.10
2018-02-05T08:16:50.086Z,59.10
2018-02-05T08:19:19.151Z,59.10
2018-02-05T08:21:47.376Z,59.10
2018-02-05T08:24:15.624Z,59.20
2018-02-05T08:26:44.628Z,59.30
2018-02-05T08:29:14.012Z,59.30
2018-02-05T08:31:42.237Z,59.30
2018-02-05T08:34:10.484Z,59.00
2018-02-05T08:36:39.538Z,59.00
2018-02-05T08:39:07.774Z,59.00
2018-02-05T08:41:36.117Z,58.90
2018-02-05T08:44:04.967Z,59.00
2018-02-05T08:46:34.381Z,59.40
2018-02-05T08:49:02.663Z,58.70
2018-02-05T08:51:30.953Z,58.70
2018-02-05T08:53:59.232Z,58.40
2018-02-05T08:56:27.509Z,58.80
2018-02-05T08:58:55.755Z,58.60
2018-02-05T09:01:23.997Z,58.60
2018-02-05T09:03:53.056Z,58.50
2018-02-05T09:06:21.323Z,58.50
2018-02-05T09:08:49.617Z,58.30
2018-02-05T09:11:17.887Z,58.40
2018-02-05T09:13:46.131Z,58.40
2018-02-05T09:16:14.410Z,57.90
2018-02-05T09:18:42.991Z,58.40
2018-02-05T09:21:11.286Z,58.00
2018-02-05T09:23:39.504Z,57.90
2018-02-05T09:26:08.532Z,57.70
2018-02-05T09:28:36.801Z,57.70
2018-02-05T09:31:05.096Z,58.00
2018-02-05T09:33:33.375Z,58.50
2018-02-05T09:36:01.625Z,57.70
2018-02-05T09:38:30.621Z,57.40
2018-02-05T09:40:59.503Z,57.40
2018-02-05T09:43:27.771Z,57.70
2018-02-05T09:45:56.035Z,57.70
2018-02-05T09:48:24.277Z,58.20
2018-02-05T09:50:52.521Z,57.50
2018-02-05T09:53:20.813Z,57.30
2018-02-05T09:55:49.079Z,57.80
2018-02-05T09:58:17.732Z,57.80
2018-02-05T10:00:45.961Z,57.60
2018-02-05T10:03:14.249Z,57.20
2018-02-05T10:05:42.548Z,57.50
2018-02-05T10:08:10.841Z,57.70
2018-02-05T10:10:39.042Z,58.40
2018-02-05T10:13:08.040Z,57.30
2018-02-05T10:15:36.287Z,57.20
2018-02-05T10:18:05.312Z,58.40
2018-02-05T10:20:33.953Z,57.80
2018-02-05T10:23:02.184Z,57.40
2018-02-05T10:25:30.463Z,58.10
2018-02-05T10:27:58.763Z,58.60
2018-02-05T10:30:27.028Z,58.30
2018-02-05T10:32:55.336Z,58.90
2018-02-05T10:35:24.383Z,59.10
2018-02-05T10:37:52.674Z,59.50
2018-02-05T10:40:21.249Z,58.60
2018-02-05T10:42:50.284Z,58.30
2018-02-05T10:45:19.313Z,59.40
2018-02-05T10:47:48.375Z,58.90
2018-02-05T10:50:16.615Z,58.90
2018-02-05T10:52:44.851Z,59.30
2018-02-05T10:55:13.145Z,59.60
2018-02-05T10:57:41.387Z,58.70
2018-02-05T11:00:09.683Z,58.60
2018-02-05T11:02:37.929Z,58.70
2018-02-05T11:05:06.198Z,59.10
2018-02-05T11:07:34.471Z,58.30
2018-02-05T11:10:02.747Z,59.30
2018-02-05T11:12:31.011Z,58.90
2018-02-05T11:14:59.244Z,57.40
2018-02-05T11:17:28.295Z,58.80
2018-02-05T11:19:56.609Z,58.80
2018-02-05T11:22:24.877Z,58.60
2018-02-05T11:24:53.156Z,58.40
2018-02-05T11:27:21.385Z,56.60
2018-02-05T11:29:49.632Z,58.70
2018-02-05T11:32:18.632Z,58.00
2018-02-05T11:34:47.718Z,58.70
2018-02-05T11:37:15.962Z,59.00
2018-02-05T11:39:44.273Z,56.60
2018-02-05T11:42:13.289Z,57.40
2018-02-05T11:44:41.564Z,57.50
2018-02-05T11:47:10.604Z,55.50
2018-02-05T11:49:38.845Z,55.50
2018-02-05T11:52:07.119Z,54.30
2018-02-05T11:54:35.367Z,54.80
2018-02-05T11:57:04.426Z,54.40
2018-02-05T11:59:32.689Z,54.40
2018-02-05T12:02:00.971Z,54.20
2018-02-05T12:04:29.225Z,56.10
2018-02-05T12:06:57.521Z,53.10
2018-02-05T12:09:25.815Z,53.90
2018-02-05T12:11:54.057Z,52.60
2018-02-05T12:14:22.306Z,52.30
2018-02-05T12:16:51.378Z,52.90
2018-02-05T12:19:19.652Z,52.90
2018-02-05T12:21:47.930Z,51.60
2018-02-05T12:24:16.223Z,52.90
2018-02-05T12:26:44.575Z,52.70
2018-02-05T12:29:12.822Z,54.10
2018-02-05T12:31:41.060Z,52.30
2018-02-05T12:34:10.077Z,52.20
2018-02-05T12:36:38.332Z,52.20
2018-02-05T12:39:06.637Z,51.10
2018-02-05T12:41:34.922Z,53.70
2018-02-05T12:44:03.212Z,51.40
2018-02-05T12:46:31.496Z,52.10
2018-02-05T12:48:59.739Z,52.00
2018-02-05T12:51:28.019Z,51.00
2018-02-05T12:53:56.276Z,51.90
2018-02-05T12:56:25.288Z,54.50
2018-02-05T12:58:53.565Z,54.20
2018-02-05T13:01:26.551Z,53.20
2018-02-05T13:03:58.584Z,47.00
2018-02-05T13:06:32.631Z,46.90
2018-02-05T13:09:00.904Z,55.00
2018-02-05T13:11:29.203Z,47.60
2018-02-05T13:16:28.332Z,48.80
2018-02-05T13:18:56.639Z,49.70
2018-02-05T13:21:24.907Z,47.50
2018-02-05T13:48:48.139Z,76.00
2018-02-05T13:51:16.463Z,72.50
2018-02-05T13:53:44.766Z,75.90
2018-02-05T13:56:13.008Z,77.90
2018-02-05T14:03:40.288Z,69.50
2018-02-05T14:06:09.356Z,77.00
2018-02-05T14:33:33.065Z,42.10
2018-02-05T14:36:01.302Z,42.90
2018-02-05T14:38:30.380Z,41.90
2018-02-05T14:40:58.672Z,41.80
2018-02-05T14:43:26.944Z,41.60
2018-02-05T14:45:55.181Z,42.70
2018-02-05T14:48:24.195Z,43.60
2018-02-05T14:50:52.458Z,42.90
2018-02-05T14:53:20.698Z,44.00
2018-02-05T14:55:49.012Z,43.90
2018-02-05T14:58:17.294Z,43.50
2018-02-05T15:00:45.631Z,43.50
2018-02-05T15:03:13.937Z,43.30
2018-02-05T15:05:42.196Z,42.70
2018-02-05T15:08:10.456Z,43.90
2018-02-05T15:10:39.463Z,44.10
2018-02-05T15:13:07.786Z,44.00
2018-02-05T15:15:36.026Z,45.20
2018-02-05T15:18:04.311Z,45.10
2018-02-05T15:20:33.321Z,44.00
2018-02-05T15:23:01.561Z,44.60
2018-02-05T15:25:29.822Z,44.90
2018-02-05T15:27:58.087Z,46.50
2018-02-05T15:30:26.635Z,46.40
2018-02-05T15:32:56.056Z,45.20
2018-02-05T15:35:24.320Z,45.70
2018-02-05T15:37:52.588Z,46.00
2018-02-05T15:40:20.864Z,45.50
2018-02-05T15:42:49.144Z,45.60
2018-02-05T15:45:17.382Z,45.90
2018-02-05T15:47:45.696Z,46.00
2018-02-05T15:50:13.994Z,45.80
2018-02-05T15:52:42.264Z,45.90
2018-02-05T15:55:10.538Z,46.50
2018-02-05T15:57:39.970Z,46.20
2018-02-05T16:00:08.246Z,46.20
2018-02-05T16:02:36.477Z,46.60
2018-02-05T16:05:04.739Z,47.00
2018-02-05T16:07:32.973Z,46.60
2018-02-05T16:10:01.219Z,46.50
2018-02-05T16:12:29.494Z,46.10
2018-02-05T16:14:57.736Z,46.70
2018-02-05T16:17:25.981Z,46.60
2018-02-05T16:19:54.252Z,47.20
2018-02-05T16:22:22.497Z,46.80
2018-02-05T16:24:50.756Z,46.90
2018-02-05T16:27:19.020Z,46.70
2018-02-05T16:29:47.268Z,46.90
2018-02-05T16:32:16.316Z,47.10
2018-02-05T16:34:44.602Z,47.00
2018-02-05T16:37:12.888Z,47.10
2018-02-05T16:39:41.227Z,47.30
2018-02-05T16:42:09.455Z,47.30
2018-02-05T16:44:37.799Z,47.30
2018-02-05T16:47:06.098Z,47.50
2018-02-05T16:49:34.340Z,47.50
2018-02-05T16:52:02.604Z,47.60
2018-02-05T16:54:30.852Z,47.70
2018-02-05T16:56:59.150Z,47.60
2018-02-05T16:59:28.192Z,47.80
2018-02-05T17:01:56.484Z,47.80
2018-02-05T17:04:24.764Z,47.80
2018-02-05T17:06:53.763Z,48.10
2018-02-05T17:09:22.048Z,48.60
2018-02-05T17:11:50.322Z,48.10
2018-02-05T17:14:18.580Z,48.20
2018-02-05T17:16:46.832Z,48.20
2018-02-05T17:19:15.230Z,48.30
2018-02-05T17:21:43.508Z,48.20
2018-02-05T17:24:11.759Z,48.30
2018-02-05T17:26:40.072Z,48.20
2018-02-05T17:29:08.313Z,48.00
2018-02-05T17:31:36.562Z,48.30
2018-02-05T17:34:05.608Z,48.20
2018-02-05T17:36:33.971Z,48.20
2018-02-05T17:39:02.212Z,48.20
2018-02-05T17:41:31.219Z,48.30
2018-02-05T17:43:59.501Z,48.30
2018-02-05T17:46:27.778Z,48.40
2018-02-05T17:48:56.815Z,48.40
2018-02-05T17:51:25.850Z,48.50
2018-02-05T17:53:54.866Z,48.40
2018-02-05T17:56:23.165Z,48.30
2018-02-05T17:58:51.448Z,48.60
2018-02-05T18:01:19.735Z,48.60
2018-02-05T18:03:48.022Z,48.60
2018-02-05T18:06:16.320Z,48.70
2018-02-05T18:08:44.639Z,48.70
2018-02-05T18:11:12.853Z,48.70
2018-02-05T18:13:41.107Z,48.60
2018-02-05T18:16:09.362Z,48.70
2018-02-05T18:18:37.675Z,48.70
2018-02-05T18:21:05.929Z,48.50
2018-02-05T18:23:35.057Z,48.60
2018-02-05T18:26:03.335Z,48.60
2018-02-05T18:28:31.570Z,48.50
2018-02-05T18:30:59.828Z,48.90
2018-02-05T18:33:28.136Z,48.70
2018-02-05T18:35:57.129Z,48.60
2018-02-05T18:38:25.419Z,49.00
2018-02-05T18:40:53.735Z,48.80
2018-02-05T18:43:22.015Z,49.00
2018-02-05T18:45:50.304Z,49.00
2018-02-05T18:48:19.319Z,48.50
2018-02-05T18:50:47.559Z,48.50
2018-02-05T18:53:15.865Z,48.50
2018-02-05T18:55:44.897Z,49.00
2018-02-05T18:58:13.189Z,48.90
2018-02-05T19:00:50.103Z,49.00
2018-02-05T19:03:19.165Z,49.00
2018-02-05T19:05:47.404Z,49.00
2018-02-05T19:08:15.715Z,49.00
2018-02-05T19:10:43.945Z,48.90
2018-02-05T19:13:12.268Z,48.90
2018-02-05T19:15:40.516Z,49.10
2018-02-05T19:18:08.808Z,49.10
2018-02-05T19:20:37.246Z,49.00
2018-02-05T19:23:06.308Z,49.50
2018-02-05T19:25:34.727Z,49.40
2018-02-05T19:28:03.007Z,49.30
2018-02-05T19:30:32.056Z,49.20
2018-02-05T19:33:00.341Z,49.20
2018-02-05T19:35:28.621Z,49.40
2018-02-05T19:37:56.896Z,49.60
2018-02-05T19:40:25.168Z,49.40
2018-02-05T19:42:53.503Z,49.40
2018-02-05T19:45:21.756Z,49.80
2018-02-05T19:47:50.758Z,49.20
2018-02-05T19:50:19.815Z,49.80
2018-02-05T19:52:48.110Z,49.80
2018-02-05T19:55:16.406Z,49.60
2018-02-05T19:57:45.475Z,49.70
2018-02-05T20:00:13.803Z,49.70
2018-02-05T20:02:42.107Z,49.90
2018-02-05T20:05:10.399Z,49.90
2018-02-05T20:07:38.667Z,49.70
2018-02-05T20:10:06.910Z,49.80
2018-02-05T20:12:35.234Z,50.20
2018-02-05T20:15:03.524Z,49.80
2018-02-05T20:17:31.805Z,50.00
2018-02-05T20:20:00.143Z,50.60
2018-02-05T20:22:28.420Z,50.50
2018-02-05T20:24:57.625Z,50.60
2018-02-05T20:27:25.885Z,50.40
2018-02-05T20:29:54.154Z,50.00
2018-02-05T20:32:23.370Z,50.30
2018-02-05T20:34:51.671Z,50.20
2018-02-05T20:37:19.925Z,50.00
2018-02-05T20:39:48.864Z,50.20
2018-02-05T20:42:17.925Z,50.60
2018-02-05T20:44:46.211Z,50.50
2018-02-05T20:47:14.508Z,50.40
2018-02-05T20:49:42.800Z,50.50
2018-02-05T20:52:11.821Z,50.80
2018-02-05T20:54:40.138Z,50.80
2018-02-05T20:57:08.420Z,50.20
2018-02-05T20:59:36.676Z,50.60
2018-02-05T21:02:04.934Z,51.30
2018-02-05T21:04:33.255Z,50.80
2018-02-05T21:07:01.551Z,51.10
2018-02-05T21:09:30.567Z,50.70
2018-02-05T21:11:59.584Z,50.80
2018-02-05T21:14:27.827Z,50.80
2018-02-05T21:16:56.905Z,51.00
2018-02-05T21:19:25.200Z,51.00
2018-02-05T21:21:54.226Z,51.20
2018-02-05T21:24:22.557Z,51.20
2018-02-05T21:26:50.769Z,51.30
2018-02-05T21:29:19.050Z,51.20
2018-02-05T21:31:47.342Z,51.10
2018-02-05T21:34:15.645Z,51.10
2018-02-05T21:36:43.869Z,51.20
2018-02-05T21:39:12.124Z,51.40
2018-02-05T21:41:41.137Z,51.80
2018-02-05T21:44:09.420Z,51.40
2018-02-05T21:46:37.723Z,51.40
2018-02-05T21:49:05.962Z,51.50
2018-02-05T21:51:35.002Z,51.20
2018-02-05T21:54:03.295Z,51.20
2018-02-05T21:56:32.331Z,51.70
2018-02-05T21:59:01.353Z,51.50
2018-02-05T22:01:29.597Z,51.40
2018-02-05T22:03:57.912Z,51.60
2018-02-05T22:06:26.196Z,51.50
2018-02-05T22:08:54.448Z,51.60
2018-02-05T22:11:22.759Z,51.40
2018-02-05T22:13:51.048Z,51.50
2018-02-05T22:16:19.269Z,51.80
2018-02-05T22:18:47.532Z,51.50
2018-02-05T22:21:16.568Z,51.80
2018-02-05T22:23:44.923Z,51.70
2018-02-05T22:26:13.201Z,51.80
2018-02-05T22:28:41.490Z,51.40
2018-02-05T22:31:09.785Z,51.60
2018-02-05T22:33:38.031Z,51.40
2018-02-05T22:36:06.370Z,51.60
2018-02-05T22:38:34.601Z,51.70
2018-02-05T22:41:02.862Z,51.50
2018-02-05T22:43:31.919Z,52.30
2018-02-05T22:46:00.209Z,52.30
2018-02-05T22:48:28.533Z,52.10
2018-02-05T22:50:56.786Z,52.10
2018-02-05T22:53:25.067Z,52.10
2018-02-05T22:55:53.428Z,51.90
2018-02-05T22:58:21.684Z,52.20
2018-02-05T23:00:49.987Z,52.40
2018-02-05T23:03:19.004Z,52.10
2018-02-05T23:05:47.247Z,52.10
2018-02-05T23:08:16.314Z,52.70
2018-02-05T23:10:44.591Z,52.40
2018-02-05T23:13:13.609Z,52.20
2018-02-05T23:15:42.625Z,51.80
2018-02-05T23:18:10.884Z,51.80
2018-02-05T23:20:39.163Z,52.20
2018-02-05T23:23:08.421Z,52.00
2018-02-05T23:25:36.640Z,52.00
2018-02-05T23:28:05.696Z,52.10
2018-02-05T23:30:33.955Z,52.20
2018-02-05T23:33:02.229Z,52.10
2018-02-05T23:35:30.489Z,52.30
2018-02-05T23:37:58.731Z,52.60
2018-02-05T23:40:26.994Z,52.50
2018-02-05T23:42:55.307Z,52.20
2018-02-05T23:45:24.360Z,52.60
2018-02-05T23:47:52.593Z,52.60
2018-02-05T23:50:20.873Z,52.80
2018-02-05T23:52:49.868Z,52.40
2018-02-05T23:55:18.123Z,52.40
2018-02-05T23:57:47.143Z,52.70
